Home > Products > Valid Products > TAF

000
FTUS45 KVEF 031400 AAA
TAFLAS
TAF AMD
KLAS 031445Z 0315/0412 VRB06KT P6SM FEW080
     FM032000 24009G15KT P6SM VCSH SCT060 SCT080
      TEMPO 0321/0324 P6SM SCT050 BKN060
     FM040100 29009KT P6SM SCT060
     FM040300 01012KT P6SM SKC=



000
FTUS45 KVEF 031400 AAA
TAFLAS
TAF AMD
KLAS 031445Z 0315/0412 VRB06KT P6SM FEW080
     FM032000 24009G15KT P6SM VCSH SCT060 SCT080
      TEMPO 0321/0324 P6SM SCT050 BKN060
     FM040100 29009KT P6SM SCT060
     FM040300 01012KT P6SM SKC=



000
FTUS45 KVEF 031100
TAFLAS
TAF
KLAS 031120Z 0312/0412 VRB05KT P6SM SKC
     FM031600 VRB06KT P6SM FEW060 SCT080
     FM031900 24009G15KT P6SM VCSH SCT060 BKN080
      TEMPO 0321/0324 P6SM SCT050 BKN060
     FM040100 29009KT P6SM SCT060
     FM040300 01012KT P6SM SKC=



000
FTUS45 KVEF 031100
TAFEED
TAF
KEED 031120Z 0312/0412 28006KT P6SM FEW060
     FM031800 03005KT P6SM SCT060
     FM032200 03005KT P6SM BKN060
     FM040300 29009KT P6SM SKC
     FM040600 33012G20KT P6SM SKC=



000
FTUS45 KVEF 031100
TAFDAG
TAF
KDAG 031120Z 0312/0412 27007KT P6SM SKC
     FM031800 28009KT P6SM SCT060
     FM040200 27007KT P6SM SKC=



000
FTUS45 KVEF 031100
TAFLAS
TAF
KLAS 031120Z 0312/0412 VRB05KT P6SM SKC
     FM031600 VRB06KT P6SM FEW060 SCT080
     FM031900 24009G15KT P6SM VCSH SCT060 BKN080
      TEMPO 0321/0324 P6SM SCT050 BKN060
     FM040100 29009KT P6SM SCT060
     FM040300 01012KT P6SM SKC=



000
FTUS45 KVEF 031100
TAFBIH
TAF
KBIH 031120Z 0312/0412 VRB05KT P6SM SKC
     FM031700 36010G18KT P6SM FEW090
     FM032000 36020G30KT P6SM SCT090
     FM040300 35016G26KT P6SM SKC
     FM040600 34012KT P6SM SKC=



000
FTUS45 KVEF 031100
TAFVGT
TAF
KVGT 031120Z 0312/0412 34006KT P6SM SKC
     FM031600 33009KT P6SM FEW060 SCT080
     FM031900 33012KT P6SM VCSH SCT060 BKN080
     FM040100 34012G18KT P6SM FEW060
     FM040600 34015G25KT P6SM SKC=



000
FTUS45 KVEF 030800 AAA
TAFLAS
TAF AMD
KLAS 030853Z 0309/0406 VRB05KT P6SM SKC
     FM031600 VRB06KT P6SM FEW060 SCT080
     FM031900 24009G15KT P6SM VCSH SCT060 BKN080=



000
FTUS45 KVEF 030800 AAA
TAFLAS
TAF AMD
KLAS 030853Z 0309/0406 VRB05KT P6SM SKC
     FM031600 VRB06KT P6SM FEW060 SCT080
     FM031900 24009G15KT P6SM VCSH SCT060 BKN080=



000
FTUS45 KVEF 030800 AAA
TAFLAS
TAF AMD
KLAS 030853Z 0309/0406 VRB05KT P6SM SKC
     FM031600 VRB06KT P6SM FEW060 SCT080
     FM031900 24009G15KT P6SM VCSH SCT060 BKN080=



000
FTUS45 KVEF 030800 AAA
TAFLAS
TAF AMD
KLAS 030853Z 0309/0406 VRB05KT P6SM SKC
     FM031600 VRB06KT P6SM FEW060 SCT080
     FM031900 24009G15KT P6SM VCSH SCT060 BKN080=



000
FTUS45 KVEF 030500
TAFBIH
TAF
KBIH 030520Z 0306/0406 VRB05KT P6SM FEW060 SCT090
     FM031700 36010G18KT P6SM FEW090
     FM032000 36020G30KT P6SM SKC=



000
FTUS45 KVEF 030500
TAFLAS
TAF
KLAS 030520Z 0306/0406 21008KT P6SM FEW080
     FM031600 VRB05KT P6SM SCT080=



000
FTUS45 KVEF 030500
TAFLAS
TAF
KLAS 030520Z 0306/0406 21008KT P6SM FEW080
     FM031600 VRB05KT P6SM SCT080=



000
FTUS45 KVEF 030500
TAFEED
TAF
KEED 030520Z 0306/0406 23006KT P6SM SCT060=



000
FTUS45 KVEF 030500
TAFVGT
TAF
KVGT 030520Z 0306/0406 34006KT P6SM SCT070
     FM031600 30006KT P6SM SCT060 BKN140=



000
FTUS45 KVEF 030500
TAFDAG
TAF
KDAG 030520Z 0306/0406 24008KT P6SM SCT060
     FM030800 27007KT P6SM SCT060=



000
FTUS45 KVEF 030300 AAC
TAFLAS
TAF AMD
KLAS 030333Z 0304/0324 27007KT P6SM SCT070
     FM030500 21008KT P6SM FEW080
     FM031600 VRB05KT P6SM SCT080=



000
FTUS45 KVEF 030300 AAC
TAFLAS
TAF AMD
KLAS 030333Z 0304/0324 27007KT P6SM SCT070
     FM030500 21008KT P6SM FEW080
     FM031600 VRB05KT P6SM SCT080=



000
FTUS45 KVEF 030300 AAA
TAFVGT
TAF AMD
KVGT 030330Z 0304/0324 32009KT P6SM BKN070
     FM030600 34006KT P6SM SCT070
     FM031600 30006KT P6SM SCT060 BKN140=



000
FTUS45 KVEF 030200 AAB
TAFLAS
TAF AMD
KLAS 030250Z 0303/0324 33012G20KT P6SM SCT060 BKN070
     FM030500 21008KT P6SM FEW060 BKN070
     FM030600 20006KT P6SM SCT070
     FM031600 VRB05KT P6SM SCT070 BKN140=



000
FTUS45 KVEF 030200 AAB
TAFLAS
TAF AMD
KLAS 030250Z 0303/0324 33012G20KT P6SM SCT060 BKN070
     FM030500 21008KT P6SM FEW060 BKN070
     FM030600 20006KT P6SM SCT070
     FM031600 VRB05KT P6SM SCT070 BKN140=



000
FTUS45 KVEF 030200 AAA
TAFLAS
TAF AMD
KLAS 030202Z 0302/0324 21008KT P6SM VCSH SCT060 BKN070
     FM030300 21008KT P6SM FEW060 BKN070
     FM030600 20006KT P6SM SCT070
     FM031600 VRB05KT P6SM SCT070 BKN140=



000
FTUS45 KVEF 030200 AAA
TAFLAS
TAF AMD
KLAS 030202Z 0302/0324 21008KT P6SM VCSH SCT060 BKN070
     FM030300 21008KT P6SM FEW060 BKN070
     FM030600 20006KT P6SM SCT070
     FM031600 VRB05KT P6SM SCT070 BKN140=



000
FTUS45 KVEF 022300
TAFDAG
TAF
KDAG 022339Z 0300/0324 25012G18KT P6SM SCT060
     FM030500 24008KT P6SM SCT060
     FM030800 27007KT P6SM SCT060=



000
FTUS45 KVEF 022300
TAFBIH
TAF
KBIH 022339Z 0300/0324 15008KT P6SM SCT060 BKN090
     FM030600 VRB05KT P6SM FEW060 SCT090
     FM031700 36010G18KT P6SM FEW090
     FM032000 36020G30KT P6SM SKC=



000
FTUS45 KVEF 022300
TAFLAS
TAF
KLAS 022339Z 0300/0324 20017G25KT P6SM SCT050 BKN070
     FM030200 21008KT P6SM FEW050 BKN070
     FM031600 VRB05KT P6SM SCT070 BKN140=



000
FTUS45 KVEF 022300
TAFDAG
TAF
KDAG 022339Z 0300/0324 25012G18KT P6SM SCT060
     FM030500 24008KT P6SM SCT060
     FM030800 27007KT P6SM SCT060=



000
FTUS45 KVEF 022300
TAFLAS
TAF
KLAS 022339Z 0300/0324 20017G25KT P6SM SCT050 BKN070
     FM030200 21008KT P6SM FEW050 BKN070
     FM031600 VRB05KT P6SM SCT070 BKN140=



000
FTUS45 KVEF 022300
TAFLAS
TAF
KLAS 022339Z 0300/0324 20017G25KT P6SM SCT050 BKN070
     FM030200 21008KT P6SM FEW050 BKN070
     FM031600 VRB05KT P6SM SCT070 BKN140=



000
FTUS45 KVEF 022300
TAFVGT
TAF
KVGT 022339Z 0300/0324 22014G22KT P6SM BKN060 BKN090
     FM030200 24009KT P6SM FEW050 BKN060
     FM031600 30006KT P6SM SCT060 BKN140=



000
FTUS45 KVEF 022300
TAFEED
TAF
KEED 022339Z 0300/0324 24012KT P6SM SCT060
     FM030200 23006KT P6SM SCT060=



000
FTUS45 KVEF 022300
TAFVGT
TAF
KVGT 022339Z 0300/0324 22014G22KT P6SM BKN060 BKN090
     FM030200 24009KT P6SM FEW050 BKN060
     FM031600 30006KT P6SM SCT060 BKN140=



000
FTUS45 KVEF 022300
TAFLAS
TAF
KLAS 022339Z 0300/0324 20017G25KT P6SM SCT050 BKN070
     FM030200 21008KT P6SM FEW050 BKN070
     FM031600 VRB05KT P6SM SCT070 BKN140=



000
FTUS45 KVEF 022300
TAFEED
TAF
KEED 022339Z 0300/0324 24012KT P6SM SCT060
     FM030200 23006KT P6SM SCT060=



000
FTUS45 KVEF 022300
TAFBIH
TAF
KBIH 022339Z 0300/0324 15008KT P6SM SCT060 BKN090
     FM030600 VRB05KT P6SM FEW060 SCT090
     FM031700 36010G18KT P6SM FEW090
     FM032000 36020G30KT P6SM SKC=



000
FTUS45 KVEF 022000 AAA
TAFLAS
TAF AMD
KLAS 022051Z 0221/0318 20017G27KT P6SM SCT050 BKN070
     FM030200 21008KT P6SM FEW050 BKN070=



000
FTUS45 KVEF 022000 AAA
TAFLAS
TAF AMD
KLAS 022051Z 0221/0318 20017G27KT P6SM SCT050 BKN070
     FM030200 21008KT P6SM FEW050 BKN070=



000
FTUS45 KVEF 021800 AAA
TAFVGT
TAF AMD
KVGT 021826Z 0218/0318 14008KT P6SM VCSH FEW012 BKN050
     FM022000 22014G24KT P6SM SCT040 BKN070
     FM030200 24009KT P6SM FEW050 BKN070=



000
FTUS45 KVEF 021800 AAA
TAFVGT
TAF AMD
KVGT 021826Z 0218/0318 14008KT P6SM VCSH FEW012 BKN050
     FM022000 22014G24KT P6SM SCT040 BKN070
     FM030200 24009KT P6SM FEW050 BKN070=



000
FTUS45 KVEF 021700
TAFLAS
TAF
KLAS 021726Z 0218/0318 18010G20KT P6SM VCSH FEW007 SCT020 BKN050
     FM022000 22017G24KT P6SM SCT040 BKN070
     FM030200 21008KT P6SM FEW050 BKN070=



000
FTUS45 KVEF 021700
TAFEED
TAF
KEED 021726Z 0218/0318 20009KT P6SM SCT020 BKN040 OVC090
     FM022100 21012G22KT P6SM SCT050 BKN090
     FM030200 22005KT P6SM FEW050 SCT090=



000
FTUS45 KVEF 021700
TAFDAG
TAF
KDAG 021726Z 0218/0318 25014KT P6SM SCT050 BKN080
     FM022000 25019G27KT P6SM SCT060 BKN100
     FM030300 24012KT P6SM SCT080
     FM030800 27007KT P6SM SCT080=



000
FTUS45 KVEF 021700
TAFVGT
TAF
KVGT 021726Z 0218/0318 14008KT P6SM VCSH FEW012 BKN030
     FM022000 22014G24KT P6SM SCT040 BKN070
     FM030200 24009KT P6SM FEW050 BKN070=



000
FTUS45 KVEF 021700
TAFLAS
TAF
KLAS 021726Z 0218/0318 18010G20KT P6SM VCSH FEW007 SCT020 BKN050
     FM022000 22017G24KT P6SM SCT040 BKN070
     FM030200 21008KT P6SM FEW050 BKN070=



000
FTUS45 KVEF 021700
TAFBIH
TAF
KBIH 021726Z 0218/0318 VRB04KT P6SM FEW120 BKN150
     FM022000 22006KT P6SM VCSH SCT050 BKN070
     FM030200 35008KT P6SM FEW050 SCT070=



000
FTUS45 KVEF 021700
TAFBIH
TAF
KBIH 021726Z 0218/0318 VRB04KT P6SM FEW120 BKN150
     FM022000 22006KT P6SM VCSH SCT050 BKN070
     FM030200 35008KT P6SM FEW050 SCT070=



000
FTUS45 KVEF 021700
TAFLAS
TAF
KLAS 021726Z 0218/0318 18010G20KT P6SM VCSH FEW007 SCT020 BKN050
     FM022000 22017G24KT P6SM SCT040 BKN070
     FM030200 21008KT P6SM FEW050 BKN070=



000
FTUS45 KVEF 021700
TAFVGT
TAF
KVGT 021726Z 0218/0318 14008KT P6SM VCSH FEW012 BKN030
     FM022000 22014G24KT P6SM SCT040 BKN070
     FM030200 24009KT P6SM FEW050 BKN070=



000
FTUS45 KVEF 021700
TAFDAG
TAF
KDAG 021726Z 0218/0318 25014KT P6SM SCT050 BKN080
     FM022000 25019G27KT P6SM SCT060 BKN100
     FM030300 24012KT P6SM SCT080
     FM030800 27007KT P6SM SCT080=



000
FTUS45 KVEF 021700
TAFEED
TAF
KEED 021726Z 0218/0318 20009KT P6SM SCT020 BKN040 OVC090
     FM022100 21012G22KT P6SM SCT050 BKN090
     FM030200 22005KT P6SM FEW050 SCT090=



000
FTUS45 KVEF 021700
TAFLAS
TAF
KLAS 021726Z 0218/0318 18010G20KT P6SM VCSH FEW007 SCT020 BKN050
     FM022000 22017G24KT P6SM SCT040 BKN070
     FM030200 21008KT P6SM FEW050 BKN070=



000
FTUS45 KVEF 021600 AAB
TAFEED
TAF AMD
KEED 021605Z 0216/0312 19007KT P6SM VCSH SCT030 OVC050
     FM021800 19006KT P6SM SCT020 BKN040 OVC090
     FM022100 21012G22KT P6SM SCT050 BKN090
     FM030200 22005KT P6SM FEW050 SCT090=



000
FTUS45 KVEF 021600 AAC
TAFLAS
TAF AMD
KLAS 021603Z 0216/0312 13005KT P6SM FEW010 SCT020 BKN045
     FM021800 20008KT P6SM FEW010 SCT030 BKN050
     FM022000 22017G24KT P6SM SCT040 BKN070
     FM030200 21008KT P6SM FEW050 BKN070=



000
FTUS45 KVEF 021600 AAC
TAFLAS
TAF AMD
KLAS 021603Z 0216/0312 13005KT P6SM FEW010 SCT020 BKN045
     FM021800 20008KT P6SM FEW010 SCT030 BKN050
     FM022000 22017G24KT P6SM SCT040 BKN070
     FM030200 21008KT P6SM FEW050 BKN070=



000
FTUS45 KVEF 021400 AAA
TAFEED
TAF AMD
KEED 021449Z 0215/0312 19005KT P6SM BKN020 BKN040 OVC090
      TEMPO 0215/0218 -SHRA
     FM021800 19006KT P6SM SCT020 BKN040 OVC090
     FM022100 21012G22KT P6SM SCT050 BKN090
     FM030200 22005KT P6SM FEW050 SCT090=



000
FTUS45 KVEF 021400 AAA
TAFEED
TAF AMD
KEED 021449Z 0215/0312 19005KT P6SM BKN020 BKN040 OVC090
      TEMPO 0215/0218 -SHRA
     FM021800 19006KT P6SM SCT020 BKN040 OVC090
     FM022100 21012G22KT P6SM SCT050 BKN090
     FM030200 22005KT P6SM FEW050 SCT090=



000
FTUS45 KVEF 021400 AAB
TAFLAS
TAF AMD
KLAS 021438Z 0215/0312 18006KT P6SM FEW010 SCT030 BKN040
     FM021800 20008KT P6SM FEW010 SCT030 BKN050
     FM022000 22017G24KT P6SM SCT040 BKN070
     FM030200 21008KT P6SM FEW050 BKN070=



000
FTUS45 KVEF 021400 AAB
TAFLAS
TAF AMD
KLAS 021438Z 0215/0312 18006KT P6SM FEW010 SCT030 BKN040
     FM021800 20008KT P6SM FEW010 SCT030 BKN050
     FM022000 22017G24KT P6SM SCT040 BKN070
     FM030200 21008KT P6SM FEW050 BKN070=



000
FTUS45 KVEF 021400 AAB
TAFLAS
TAF AMD
KLAS 021438Z 0215/0312 18006KT P6SM FEW010 SCT030 BKN040
     FM021800 20008KT P6SM FEW010 SCT030 BKN050
     FM022000 22017G24KT P6SM SCT040 BKN070
     FM030200 21008KT P6SM FEW050 BKN070=



000
FTUS45 KVEF 021400 AAB
TAFLAS
TAF AMD
KLAS 021438Z 0215/0312 18006KT P6SM FEW010 SCT030 BKN040
     FM021800 20008KT P6SM FEW010 SCT030 BKN050
     FM022000 22017G24KT P6SM SCT040 BKN070
     FM030200 21008KT P6SM FEW050 BKN070=



000
FTUS45 KVEF 021400 AAA
TAFVGT
TAF AMD
KVGT 021419Z 0214/0312 17005KT P6SM -SHRA SCT010 BKN025 OVC030
      TEMPO 0214/0217 BKN010 OVC025
     FM021800 VRB06KT P6SM FEW010 BKN030 BKN050
     FM022000 22014G24KT P6SM SCT040 BKN070
     FM030200 24009KT P6SM FEW050 BKN070=



000
FTUS45 KVEF 021300 AAA
TAFLAS
TAF AMD
KLAS 021324Z 0213/0312 18006KT P6SM -SHRA SCT006 BKN025 OVC050
      TEMPO 0214/0217 BKN006 OVC025
     FM021800 20008KT P6SM FEW010 BKN025 BKN050
     FM022000 22017G24KT P6SM SCT040 BKN070
     FM030200 21008KT P6SM FEW050 BKN070=



000
FTUS45 KVEF 021300 AAA
TAFLAS
TAF AMD
KLAS 021324Z 0213/0312 18006KT P6SM -SHRA SCT006 BKN025 OVC050
      TEMPO 0214/0217 BKN006 OVC025
     FM021800 20008KT P6SM FEW010 BKN025 BKN050
     FM022000 22017G24KT P6SM SCT040 BKN070
     FM030200 21008KT P6SM FEW050 BKN070=



000
FTUS45 KVEF 021300 AAA
TAFLAS
TAF AMD
KLAS 021324Z 0213/0312 18006KT P6SM -SHRA SCT006 BKN025 OVC050
      TEMPO 0214/0217 BKN006 OVC025
     FM021800 20008KT P6SM FEW010 BKN025 BKN050
     FM022000 22017G24KT P6SM SCT040 BKN070
     FM030200 21008KT P6SM FEW050 BKN070=



000
FTUS45 KVEF 021300 AAA
TAFLAS
TAF AMD
KLAS 021324Z 0213/0312 18006KT P6SM -SHRA SCT006 BKN025 OVC050
      TEMPO 0214/0217 BKN006 OVC025
     FM021800 20008KT P6SM FEW010 BKN025 BKN050
     FM022000 22017G24KT P6SM SCT040 BKN070
     FM030200 21008KT P6SM FEW050 BKN070=



000
FTUS45 KVEF 021100
TAFDAG
TAF
KDAG 021120Z 0212/0312 21003KT P6SM SCT040 BKN060
     FM021800 25019G27KT P6SM SCT060 BKN100
     FM030300 24012KT P6SM SCT080
     FM030800 27007KT P6SM SCT080=



000
FTUS45 KVEF 021100
TAFVGT
TAF
KVGT 021120Z 0212/0312 17003KT P6SM -RA SCT030 BKN050 OVC080
     FM021600 VRB06KT P6SM SCT030 BKN050
     FM022000 22014G24KT P6SM SCT040 BKN070
     FM030200 24009KT P6SM FEW050 BKN070=



000
FTUS45 KVEF 021100
TAFBIH
TAF
KBIH 021120Z 0212/0312 32004KT P6SM FEW120 BKN150
     FM022000 22006KT P6SM VCSH SCT050 BKN070
     FM030200 35008KT P6SM FEW050 SCT070=



000
FTUS45 KVEF 021100
TAFEED
TAF
KEED 021120Z 0212/0312 VRB05KT P6SM -RA FEW060 SCT070 OVC090
      TEMPO 0212/0215 6SM -RA FEW040 BKN050 OVC070
     FM021500 19005KT P6SM SCT040 BKN080
      TEMPO 0215/0218 -SHRA BKN040
     FM022100 21012G22KT P6SM SCT050 BKN090
     FM030200 22005KT P6SM FEW050 SCT090=



000
FTUS45 KVEF 021100
TAFLAS
TAF
KLAS 021120Z 0212/0312 17005KT P6SM -RA FEW015 BKN030 OVC100
     FM021700 20008KT P6SM SCT030 BKN050
     FM022000 22017G24KT P6SM SCT040 BKN070
     FM030200 21008KT P6SM FEW050 BKN070=



000
FTUS45 KVEF 021100
TAFVGT
TAF
KVGT 021120Z 0212/0312 17003KT P6SM -RA SCT030 BKN050 OVC080
     FM021600 VRB06KT P6SM SCT030 BKN050
     FM022000 22014G24KT P6SM SCT040 BKN070
     FM030200 24009KT P6SM FEW050 BKN070=



000
FTUS45 KVEF 021100
TAFDAG
TAF
KDAG 021120Z 0212/0312 21003KT P6SM SCT040 BKN060
     FM021800 25019G27KT P6SM SCT060 BKN100
     FM030300 24012KT P6SM SCT080
     FM030800 27007KT P6SM SCT080=



000
FTUS45 KVEF 021100
TAFLAS
TAF
KLAS 021120Z 0212/0312 17005KT P6SM -RA FEW015 BKN030 OVC100
     FM021700 20008KT P6SM SCT030 BKN050
     FM022000 22017G24KT P6SM SCT040 BKN070
     FM030200 21008KT P6SM FEW050 BKN070=



000
FTUS45 KVEF 021100
TAFLAS
TAF
KLAS 021120Z 0212/0312 17005KT P6SM -RA FEW015 BKN030 OVC100
     FM021700 20008KT P6SM SCT030 BKN050
     FM022000 22017G24KT P6SM SCT040 BKN070
     FM030200 21008KT P6SM FEW050 BKN070=



000
FTUS45 KVEF 021100
TAFBIH
TAF
KBIH 021120Z 0212/0312 32004KT P6SM FEW120 BKN150
     FM022000 22006KT P6SM VCSH SCT050 BKN070
     FM030200 35008KT P6SM FEW050 SCT070=



000
FTUS45 KVEF 021100
TAFEED
TAF
KEED 021120Z 0212/0312 VRB05KT P6SM -RA FEW060 SCT070 OVC090
      TEMPO 0212/0215 6SM -RA FEW040 BKN050 OVC070
     FM021500 19005KT P6SM SCT040 BKN080
      TEMPO 0215/0218 -SHRA BKN040
     FM022100 21012G22KT P6SM SCT050 BKN090
     FM030200 22005KT P6SM FEW050 SCT090=



000
FTUS45 KVEF 021100
TAFLAS
TAF
KLAS 021120Z 0212/0312 17005KT P6SM -RA FEW015 BKN030 OVC100
     FM021700 20008KT P6SM SCT030 BKN050
     FM022000 22017G24KT P6SM SCT040 BKN070
     FM030200 21008KT P6SM FEW050 BKN070=



000
FTUS45 KVEF 020800 AAA
TAFLAS
TAF AMD
KLAS 020847Z 0209/0306 14005KT P6SM FEW018 OVC030
      TEMPO 0209/0210 5SM -RA BR BKN015
     FM021000 VRB05KT P6SM BKN020 OVC040
      TEMPO 0210/0214 5SM -RA BR BKN015 OVC030
     FM021600 20008KT P6SM SCT030 BKN050
     FM022000 22014G24KT P6SM SCT040 BKN070=



000
FTUS45 KVEF 020800 AAA
TAFLAS
TAF AMD
KLAS 020847Z 0209/0306 14005KT P6SM FEW018 OVC030
      TEMPO 0209/0210 5SM -RA BR BKN015
     FM021000 VRB05KT P6SM BKN020 OVC040
      TEMPO 0210/0214 5SM -RA BR BKN015 OVC030
     FM021600 20008KT P6SM SCT030 BKN050
     FM022000 22014G24KT P6SM SCT040 BKN070=



000
FTUS45 KVEF 020800 AAA
TAFLAS
TAF AMD
KLAS 020847Z 0209/0306 14005KT P6SM FEW018 OVC030
      TEMPO 0209/0210 5SM -RA BR BKN015
     FM021000 VRB05KT P6SM BKN020 OVC040
      TEMPO 0210/0214 5SM -RA BR BKN015 OVC030
     FM021600 20008KT P6SM SCT030 BKN050
     FM022000 22014G24KT P6SM SCT040 BKN070=



000
FTUS45 KVEF 020500
TAFEED
TAF
KEED 020533Z 0206/0306 36006KT P6SM -RA SCT030 OVC060
      TEMPO 0206/0210 5SM -RA BR BKN025
     FM021000 33006KT P6SM SCT025 OVC050
      TEMPO 0210/0214 5SM -RA BR BKN020
     FM021400 19010KT P6SM SCT040 BKN080
      TEMPO 0214/0218 -SHRA BKN040
     FM022100 21012G22KT P6SM SCT050 BKN090=



000
FTUS45 KVEF 020500
TAFDAG
TAF
KDAG 020533Z 0206/0306 06006KT P6SM VCSH SCT040 BKN080
     FM021100 25009KT P6SM SCT040 BKN100
     FM021800 25019G27KT P6SM SCT060 BKN100
     FM030300 24012KT P6SM SCT080=



000
FTUS45 KVEF 020500
TAFBIH
TAF
KBIH 020533Z 0206/0306 33006KT P6SM SCT050 BKN090
     FM022000 30006KT P6SM SCT050 BKN070 PROB30 0220/0224 -SHRA
      BKN050=



000
FTUS45 KVEF 020500
TAFLAS
TAF
KLAS 020533Z 0206/0306 VRB05KT P6SM -RA SCT015 OVC035
      TEMPO 0206/0210 5SM -RA BR BKN015
     FM021000 VRB05KT P6SM BKN020 OVC040
      TEMPO 0210/0214 5SM -RA BR BKN015 OVC030
     FM021600 20008KT P6SM SCT030 BKN050
     FM022000 22014G24KT P6SM SCT040 BKN070=



000
FTUS45 KVEF 020500
TAFLAS
TAF
KLAS 020533Z 0206/0306 VRB05KT P6SM -RA SCT015 OVC035
      TEMPO 0206/0210 5SM -RA BR BKN015
     FM021000 VRB05KT P6SM BKN020 OVC040
      TEMPO 0210/0214 5SM -RA BR BKN015 OVC030
     FM021600 20008KT P6SM SCT030 BKN050
     FM022000 22014G24KT P6SM SCT040 BKN070=



000
FTUS45 KVEF 020500
TAFVGT
TAF
KVGT 020533Z 0206/0306 VRB05KT P6SM -RA SCT015 OVC030
      TEMPO 0206/0210 5SM -RA BR BKN015
     FM021000 VRB05KT P6SM BKN020 OVC040
      TEMPO 0210/0214 5SM -RA BR BKN015 OVC030
     FM021600 VRB06KT P6SM SCT030 OVC050
     FM022000 22014G24KT P6SM SCT040 BKN070=



000
FTUS45 KVEF 020500
TAFBIH
TAF
KBIH 020533Z 0206/0306 33006KT P6SM SCT050 BKN090
     FM022000 30006KT P6SM SCT050 BKN070 PROB30 0220/0224 -SHRA
      BKN050=



000
FTUS45 KVEF 020500
TAFLAS
TAF
KLAS 020533Z 0206/0306 VRB05KT P6SM -RA SCT015 OVC035
      TEMPO 0206/0210 5SM -RA BR BKN015
     FM021000 VRB05KT P6SM BKN020 OVC040
      TEMPO 0210/0214 5SM -RA BR BKN015 OVC030
     FM021600 20008KT P6SM SCT030 BKN050
     FM022000 22014G24KT P6SM SCT040 BKN070=



000
FTUS45 KVEF 020500
TAFVGT
TAF
KVGT 020533Z 0206/0306 VRB05KT P6SM -RA SCT015 OVC030
      TEMPO 0206/0210 5SM -RA BR BKN015
     FM021000 VRB05KT P6SM BKN020 OVC040
      TEMPO 0210/0214 5SM -RA BR BKN015 OVC030
     FM021600 VRB06KT P6SM SCT030 OVC050
     FM022000 22014G24KT P6SM SCT040 BKN070=



000
FTUS45 KVEF 020500
TAFLAS
TAF
KLAS 020533Z 0206/0306 VRB05KT P6SM -RA SCT015 OVC035
      TEMPO 0206/0210 5SM -RA BR BKN015
     FM021000 VRB05KT P6SM BKN020 OVC040
      TEMPO 0210/0214 5SM -RA BR BKN015 OVC030
     FM021600 20008KT P6SM SCT030 BKN050
     FM022000 22014G24KT P6SM SCT040 BKN070=



000
FTUS45 KVEF 020500
TAFEED
TAF
KEED 020533Z 0206/0306 36006KT P6SM -RA SCT030 OVC060
      TEMPO 0206/0210 5SM -RA BR BKN025
     FM021000 33006KT P6SM SCT025 OVC050
      TEMPO 0210/0214 5SM -RA BR BKN020
     FM021400 19010KT P6SM SCT040 BKN080
      TEMPO 0214/0218 -SHRA BKN040
     FM022100 21012G22KT P6SM SCT050 BKN090=



000
FTUS45 KVEF 020500
TAFDAG
TAF
KDAG 020533Z 0206/0306 06006KT P6SM VCSH SCT040 BKN080
     FM021100 25009KT P6SM SCT040 BKN100
     FM021800 25019G27KT P6SM SCT060 BKN100
     FM030300 24012KT P6SM SCT080=



000
FTUS45 KVEF 020400 AAB
TAFLAS
TAF AMD
KLAS 020424Z 0204/0224 13007KT P6SM -RA BKN040 OVC060
      TEMPO 0204/0208 5SM RA BR BKN025
     FM020800 18007KT 5SM -RA BKN030 OVC050
      TEMPO 0208/0212 4SM RA BR BKN020 OVC030
     FM021500 20008KT P6SM SCT030 BKN050=



000
FTUS45 KVEF 020400 AAB
TAFLAS
TAF AMD
KLAS 020424Z 0204/0224 13007KT P6SM -RA BKN040 OVC060
      TEMPO 0204/0208 5SM RA BR BKN025
     FM020800 18007KT 5SM -RA BKN030 OVC050
      TEMPO 0208/0212 4SM RA BR BKN020 OVC030
     FM021500 20008KT P6SM SCT030 BKN050=



000
FTUS45 KVEF 020200 AAA
TAFLAS
TAF AMD
KLAS 020250Z 0203/0224 09006KT P6SM -RA BKN040 OVC060
     FM020600 12008KT P6SM -RA BKN040 OVC060
      TEMPO 0208/0210 5SM RA BR OVC030
     FM021000 18007KT 5SM -RA BKN030 OVC050
      TEMPO 0210/0214 4SM RA BR BKN020 OVC030
     FM021500 20008KT P6SM SCT030 BKN050=



000
FTUS45 KVEF 020200 AAA
TAFLAS
TAF AMD
KLAS 020250Z 0203/0224 09006KT P6SM -RA BKN040 OVC060
     FM020600 12008KT P6SM -RA BKN040 OVC060
      TEMPO 0208/0210 5SM RA BR OVC030
     FM021000 18007KT 5SM -RA BKN030 OVC050
      TEMPO 0210/0214 4SM RA BR BKN020 OVC030
     FM021500 20008KT P6SM SCT030 BKN050=



000
FTUS45 KVEF 020000 AAA
TAFDAG
TAF AMD
KDAG 020039Z 0201/0224 10012KT P6SM VCSH SCT070 OVC100
     FM020400 26005KT P6SM VCSH SCT040 BKN060
     FM021800 25019G27KT P6SM SCT060 BKN100=



000
FTUS45 KVEF 012300
TAFVGT
TAF
KVGT 012333Z 0200/0224 14007KT P6SM -RA BKN040 OVC060
     FM020600 11007KT P6SM -RA BKN050 OVC070
      TEMPO 0208/0210 5SM RA BR OVC040
     FM021000 VRB05KT 5SM -RA BKN030 OVC050
      TEMPO 0210/0214 4SM RA BR BKN020 OVC030
     FM021500 28006KT P6SM SCT030 OVC050=



000
FTUS45 KVEF 012300
TAFDAG
TAF
KDAG 012333Z 0200/0224 10010KT P6SM -RA SCT070 OVC100
      TEMPO 0200/0204 5SM RA BR BKN050
     FM020400 26005KT P6SM VCSH SCT040 BKN060
     FM021800 25019G27KT P6SM SCT060 BKN100=



000
FTUS45 KVEF 012300
TAFEED
TAF
KEED 012333Z 0200/0224 VRB06KT P6SM -RA SCT030 OVC050
      TEMPO 0200/0204 4SM RA BR SCT020 OVC040
     FM020600 26004KT P6SM -RA SCT030 OVC050
      TEMPO 0206/0210 4SM RA BR SCT020 OVC040=



000
FTUS45 KVEF 012300
TAFBIH
TAF
KBIH 012333Z 0200/0224 16006KT P6SM VCSH FEW040 SCT070 BKN100
      TEMPO 0202/0206 -RA SCT050 BKN070
     FM020800 35006KT P6SM SCT080 BKN120
     FM021800 36006KT P6SM SCT080 BKN100=



000
FTUS45 KVEF 012300
TAFLAS
TAF
KLAS 012333Z 0200/0224 09008KT P6SM -RA BKN040 OVC060
     FM020600 12008KT P6SM -RA BKN040 OVC060
      TEMPO 0208/0210 5SM RA BR OVC030
     FM021000 18007KT 5SM -RA BKN030 OVC050
      TEMPO 0210/0214 4SM RA BR BKN020 OVC030
     FM021500 20008KT P6SM SCT030 BKN050=



000
FTUS45 KVEF 012300
TAFLAS
TAF
KLAS 012333Z 0200/0224 09008KT P6SM -RA BKN040 OVC060
     FM020600 12008KT P6SM -RA BKN040 OVC060
      TEMPO 0208/0210 5SM RA BR OVC030
     FM021000 18007KT 5SM -RA BKN030 OVC050
      TEMPO 0210/0214 4SM RA BR BKN020 OVC030
     FM021500 20008KT P6SM SCT030 BKN050=



000
FTUS45 KVEF 012300
TAFVGT
TAF
KVGT 012333Z 0200/0224 14007KT P6SM -RA BKN040 OVC060
     FM020600 11007KT P6SM -RA BKN050 OVC070
      TEMPO 0208/0210 5SM RA BR OVC040
     FM021000 VRB05KT 5SM -RA BKN030 OVC050
      TEMPO 0210/0214 4SM RA BR BKN020 OVC030
     FM021500 28006KT P6SM SCT030 OVC050=



000
FTUS45 KVEF 012300
TAFDAG
TAF
KDAG 012333Z 0200/0224 10010KT P6SM -RA SCT070 OVC100
      TEMPO 0200/0204 5SM RA BR BKN050
     FM020400 26005KT P6SM VCSH SCT040 BKN060
     FM021800 25019G27KT P6SM SCT060 BKN100=



000
FTUS45 KVEF 012300
TAFLAS
TAF
KLAS 012333Z 0200/0224 09008KT P6SM -RA BKN040 OVC060
     FM020600 12008KT P6SM -RA BKN040 OVC060
      TEMPO 0208/0210 5SM RA BR OVC030
     FM021000 18007KT 5SM -RA BKN030 OVC050
      TEMPO 0210/0214 4SM RA BR BKN020 OVC030
     FM021500 20008KT P6SM SCT030 BKN050=



000
FTUS45 KVEF 012300
TAFBIH
TAF
KBIH 012333Z 0200/0224 16006KT P6SM VCSH FEW040 SCT070 BKN100
      TEMPO 0202/0206 -RA SCT050 BKN070
     FM020800 35006KT P6SM SCT080 BKN120
     FM021800 36006KT P6SM SCT080 BKN100=



000
FTUS45 KVEF 012300
TAFEED
TAF
KEED 012333Z 0200/0224 VRB06KT P6SM -RA SCT030 OVC050
      TEMPO 0200/0204 4SM RA BR SCT020 OVC040
     FM020600 26004KT P6SM -RA SCT030 OVC050
      TEMPO 0206/0210 4SM RA BR SCT020 OVC040=



000
FTUS45 KVEF 012200 AAA
TAFEED
TAF AMD
KEED 012213Z 0122/0218 12005KT P6SM -RA BKN020 OVC040
     FM020200 36004KT P6SM -RA SCT030 OVC050
      TEMPO 0202/0206 4SM RA BR SCT020 OVC040
     FM020600 26004KT P6SM -RA SCT030 OVC050
      TEMPO 0206/0210 4SM RA BR SCT020 OVC040=



000
FTUS45 KVEF 012100 AAA
TAFBIH
TAF AMD
KBIH 012144Z 0122/0218 16006KT P6SM VCSH FEW040 SCT060 BKN080
      TEMPO 0122/0202 -RA SCT030 BKN050
     FM020500 35006KT P6SM SCT080 BKN120
     FM020900 33004KT P6SM FEW080 SCT120=



000
FTUS45 KVEF 012000 AAA
TAFLAS
TAF AMD
KLAS 012055Z 0121/0218 08007KT P6SM VCSH SCT050 BKN070 OVC100
      TEMPO 0121/0124 -RA BKN050
     FM020000 12008KT P6SM -RA SCT040 BKN050 OVC070
      TEMPO 0204/0208 4SM RA BR SCT025 BKN040 OVC050
     FM020900 12006KT P6SM BKN040 OVC060=



000
FTUS45 KVEF 012000 AAA
TAFLAS
TAF AMD
KLAS 012055Z 0121/0218 08007KT P6SM VCSH SCT050 BKN070 OVC100
      TEMPO 0121/0124 -RA BKN050
     FM020000 12008KT P6SM -RA SCT040 BKN050 OVC070
      TEMPO 0204/0208 4SM RA BR SCT025 BKN040 OVC050
     FM020900 12006KT P6SM BKN040 OVC060=



000
FTUS45 KVEF 012000 AAA
TAFLAS
TAF AMD
KLAS 012055Z 0121/0218 08007KT P6SM VCSH SCT050 BKN070 OVC100
      TEMPO 0121/0124 -RA BKN050
     FM020000 12008KT P6SM -RA SCT040 BKN050 OVC070
      TEMPO 0204/0208 4SM RA BR SCT025 BKN040 OVC050
     FM020900 12006KT P6SM BKN040 OVC060=



000
FTUS45 KVEF 012000 AAA
TAFLAS
TAF AMD
KLAS 012055Z 0121/0218 08007KT P6SM VCSH SCT050 BKN070 OVC100
      TEMPO 0121/0124 -RA BKN050
     FM020000 12008KT P6SM -RA SCT040 BKN050 OVC070
      TEMPO 0204/0208 4SM RA BR SCT025 BKN040 OVC050
     FM020900 12006KT P6SM BKN040 OVC060=



000
FTUS45 KVEF 011700
TAFEED
TAF
KEED 011739Z 0118/0218 VRB06KT P6SM BKN070 OVC100
     FM011900 17005KT P6SM VCSH SCT030 OVC050
     FM020200 36004KT P6SM -RA SCT030 OVC050
      TEMPO 0202/0206 4SM RA BR SCT020 OVC040
     FM020600 26004KT P6SM -RA SCT030 OVC050
      TEMPO 0206/0210 4SM RA BR SCT020 OVC040=



000
FTUS45 KVEF 011700
TAFDAG
TAF
KDAG 011739Z 0118/0218 33007KT P6SM BKN070 OVC090
     FM012000 VRB05KT P6SM -RA SCT030 OVC040
      TEMPO 0121/0201 4SM RA BR BKN030
     FM020400 26005KT P6SM VCSH SCT040 BKN060=



000
FTUS45 KVEF 011700
TAFVGT
TAF
KVGT 011739Z 0118/0218 11004KT P6SM SCT070 BKN100
     FM012000 11008KT P6SM VCSH SCT050 BKN070 OVC100
     FM020100 11007KT P6SM -RA SCT040 BKN050 OVC070
     FM020500 12006KT 6SM -RA SCT040 BKN050 OVC070
      TEMPO 0205/0209 4SM RA BR SCT025 BKN040 OVC050
     FM020900 10006KT P6SM BKN040 OVC060=



000
FTUS45 KVEF 011700
TAFLAS
TAF
KLAS 011739Z 0118/0218 02007KT P6SM SCT070 BKN100
     FM012000 12008KT P6SM VCSH SCT050 BKN070 OVC100
     FM020000 15007KT P6SM -RA SCT040 BKN050 OVC070
      TEMPO 0204/0208 4SM RA BR SCT025 BKN040 OVC050
     FM020900 12006KT P6SM BKN040 OVC060=



000
FTUS45 KVEF 011700
TAFBIH
TAF
KBIH 011739Z 0118/0218 VRB06KT P6SM BKN050 OVC070
     FM012000 16006KT P6SM VCSH SCT080 BKN140
     FM020500 35006KT P6SM SCT080 BKN120
     FM020900 33004KT P6SM FEW080 SCT120=



000
FTUS45 KVEF 011700
TAFBIH
TAF
KBIH 011739Z 0118/0218 VRB06KT P6SM BKN050 OVC070
     FM012000 16006KT P6SM VCSH SCT080 BKN140
     FM020500 35006KT P6SM SCT080 BKN120
     FM020900 33004KT P6SM FEW080 SCT120=



000
FTUS45 KVEF 011700
TAFLAS
TAF
KLAS 011739Z 0118/0218 02007KT P6SM SCT070 BKN100
     FM012000 12008KT P6SM VCSH SCT050 BKN070 OVC100
     FM020000 15007KT P6SM -RA SCT040 BKN050 OVC070
      TEMPO 0204/0208 4SM RA BR SCT025 BKN040 OVC050
     FM020900 12006KT P6SM BKN040 OVC060=



000
FTUS45 KVEF 011700
TAFLAS
TAF
KLAS 011739Z 0118/0218 02007KT P6SM SCT070 BKN100
     FM012000 12008KT P6SM VCSH SCT050 BKN070 OVC100
     FM020000 15007KT P6SM -RA SCT040 BKN050 OVC070
      TEMPO 0204/0208 4SM RA BR SCT025 BKN040 OVC050
     FM020900 12006KT P6SM BKN040 OVC060=



000
FTUS45 KVEF 011700
TAFVGT
TAF
KVGT 011739Z 0118/0218 11004KT P6SM SCT070 BKN100
     FM012000 11008KT P6SM VCSH SCT050 BKN070 OVC100
     FM020100 11007KT P6SM -RA SCT040 BKN050 OVC070
     FM020500 12006KT 6SM -RA SCT040 BKN050 OVC070
      TEMPO 0205/0209 4SM RA BR SCT025 BKN040 OVC050
     FM020900 10006KT P6SM BKN040 OVC060=



000
FTUS45 KVEF 011700
TAFDAG
TAF
KDAG 011739Z 0118/0218 33007KT P6SM BKN070 OVC090
     FM012000 VRB05KT P6SM -RA SCT030 OVC040
      TEMPO 0121/0201 4SM RA BR BKN030
     FM020400 26005KT P6SM VCSH SCT040 BKN060=



000
FTUS45 KVEF 011700
TAFEED
TAF
KEED 011739Z 0118/0218 VRB06KT P6SM BKN070 OVC100
     FM011900 17005KT P6SM VCSH SCT030 OVC050
     FM020200 36004KT P6SM -RA SCT030 OVC050
      TEMPO 0202/0206 4SM RA BR SCT020 OVC040
     FM020600 26004KT P6SM -RA SCT030 OVC050
      TEMPO 0206/0210 4SM RA BR SCT020 OVC040=



000
FTUS45 KVEF 011400 AAA
TAFLAS
TAF AMD
KLAS 011438Z 0115/0212 VRB05KT P6SM SCT070 BKN100
     FM011700 05007KT P6SM BKN070
     FM012200 12005KT P6SM VCSH SCT050 OVC070
     FM020000 18005KT P6SM -RA SCT040 BKN050 OVC070
      TEMPO 0204/0208 4SM RA BR SCT025 BKN040 OVC050=



000
FTUS45 KVEF 011400 AAA
TAFLAS
TAF AMD
KLAS 011438Z 0115/0212 VRB05KT P6SM SCT070 BKN100
     FM011700 05007KT P6SM BKN070
     FM012200 12005KT P6SM VCSH SCT050 OVC070
     FM020000 18005KT P6SM -RA SCT040 BKN050 OVC070
      TEMPO 0204/0208 4SM RA BR SCT025 BKN040 OVC050=



000
FTUS45 KVEF 011100
TAFLAS
TAF
KLAS 011137Z 0112/0212 VRB04KT P6SM SCT080 BKN100
     FM011500 05007KT P6SM BKN070
     FM012200 12005KT P6SM VCSH SCT050 OVC070
     FM020000 18005KT P6SM -RA SCT040 BKN050 OVC070
      TEMPO 0204/0208 4SM RA BR SCT025 BKN040 OVC050=



000
FTUS45 KVEF 011100
TAFBIH
TAF
KBIH 011137Z 0112/0212 18007KT P6SM VCSH BKN070
     FM011700 02006KT P6SM VCSH SCT080 BKN140
     FM012000 16006KT P6SM VCSH SCT080 BKN140
     FM020300 35006KT P6SM VCSH SCT080 BKN120
     FM020900 33004KT P6SM FEW080 SCT120=



000
FTUS45 KVEF 011100
TAFVGT
TAF
KVGT 011137Z 0112/0212 35003KT P6SM SCT080 OVC100
     FM011600 05005KT P6SM BKN070
     FM012000 11005KT P6SM SCT050 BKN070
     FM020100 20004KT P6SM -RA SCT040 BKN050 OVC070
     FM020500 30005KT 6SM -RA SCT040 BKN050 OVC070
      TEMPO 0205/0209 4SM RA BR SCT025 BKN040 OVC050=



000
FTUS45 KVEF 011100
TAFLAS
TAF
KLAS 011137Z 0112/0212 VRB04KT P6SM SCT080 BKN100
     FM011500 05007KT P6SM BKN070
     FM012200 12005KT P6SM VCSH SCT050 OVC070
     FM020000 18005KT P6SM -RA SCT040 BKN050 OVC070
      TEMPO 0204/0208 4SM RA BR SCT025 BKN040 OVC050=



000
FTUS45 KVEF 011100
TAFDAG
TAF
KDAG 011137Z 0112/0212 23008KT P6SM SCT200
     FM011600 30006KT P6SM VCSH BKN040
     FM012200 VRB06KT P6SM -RA SCT030 OVC040
     FM020400 26005KT P6SM SCT040 BKN060=



000
FTUS45 KVEF 011100
TAFEED
TAF
KEED 011137Z 0112/0212 21006KT P6SM OVC080
     FM012100 17005KT P6SM -RA SCT030 OVC050
     FM020000 36004KT P6SM -RA SCT030 OVC050
      TEMPO 0202/0206 4SM RA BR SCT020 OVC040
     FM020600 26004KT P6SM -RA SCT030 OVC050
      TEMPO 0206/0210 4SM RA BR SCT020 OVC040=



000
FTUS45 KVEF 010900 AAA
TAFLAS
TAF AMD
KLAS 010940Z 0110/0206 21005KT P6SM BKN080
     FM011500 20007KT P6SM BKN070
     FM020000 18005KT P6SM -RA SCT040 BKN050 OVC070=



000
FTUS45 KVEF 010900 AAA
TAFLAS
TAF AMD
KLAS 010940Z 0110/0206 21005KT P6SM BKN080
     FM011500 20007KT P6SM BKN070
     FM020000 18005KT P6SM -RA SCT040 BKN050 OVC070=



000
FTUS45 KVEF 010500
TAFVGT
TAF
KVGT 010520Z 0106/0206 19003KT P6SM FEW090
     FM011000 30006KT P6SM SCT070 BKN100
     FM011500 33006KT P6SM BKN070
     FM020100 20004KT P6SM -RA SCT040 BKN050 OVC070=



000
FTUS45 KVEF 010500
TAFLAS
TAF
KLAS 010520Z 0106/0206 21009KT P6SM FEW090
     FM011000 21010KT P6SM SCT070 BKN100
     FM011500 20007KT P6SM BKN070
     FM020000 18005KT P6SM -RA SCT040 BKN050 OVC070=



000
FTUS45 KVEF 010500
TAFLAS
TAF
KLAS 010520Z 0106/0206 21009KT P6SM FEW090
     FM011000 21010KT P6SM SCT070 BKN100
     FM011500 20007KT P6SM BKN070
     FM020000 18005KT P6SM -RA SCT040 BKN050 OVC070=



000
FTUS45 KVEF 010500
TAFBIH
TAF
KBIH 010520Z 0106/0206 VRB06KT P6SM VCSH OVC080
     FM011700 02006KT P6SM VCSH SCT080 BKN140
     FM012000 16006KT P6SM VCSH SCT080 BKN140
     FM020300 35006KT P6SM VCSH SCT080 BKN120=



000
FTUS45 KVEF 010500
TAFLAS
TAF
KLAS 010520Z 0106/0206 21009KT P6SM FEW090
     FM011000 21010KT P6SM SCT070 BKN100
     FM011500 20007KT P6SM BKN070
     FM020000 18005KT P6SM -RA SCT040 BKN050 OVC070=



000
FTUS45 KVEF 010500
TAFDAG
TAF
KDAG 010520Z 0106/0206 34011KT P6SM FEW100
     FM011000 27009KT P6SM SCT040 BKN070
     FM011600 30006KT P6SM VCSH BKN040
     FM012200 VRB06KT P6SM -RA SCT030 OVC040=



000
FTUS45 KVEF 010500
TAFEED
TAF
KEED 010520Z 0106/0206 23007KT P6SM BKN150
     FM011000 VRB05KT P6SM SCT060 BKN120
     FM012100 17005KT P6SM -RA SCT030 OVC050
     FM020000 36004KT P6SM -RA SCT030 OVC050
      TEMPO 0202/0206 4SM RA SCT020 OVC040=



000
FTUS45 KVEF 010200 AAA
TAFEED
TAF AMD
KEED 010258Z 0103/0124 22010KT P6SM BKN200
     FM011000 VRB05KT P6SM SCT060 BKN120
     FM012100 16006KT P6SM VCSH BKN060=



000
FTUS45 KVEF 010200 AAA
TAFDAG
TAF AMD
KDAG 010258Z 0103/0124 24016KT P6SM BKN200
     FM011000 27009KT P6SM SCT040 BKN070
     FM011600 30006KT P6SM VCSH BKN040=



000
FTUS45 KVEF 010200 AAA
TAFLAS
TAF AMD
KLAS 010236Z 0103/0124 20010G18KT P6SM FEW090
     FM010500 21012KT P6SM SCT070
     FM011000 21010KT P6SM SCT070 BKN100
     FM011500 20007KT P6SM BKN070=



000
FTUS45 KVEF 010200 AAA
TAFLAS
TAF AMD
KLAS 010236Z 0103/0124 20010G18KT P6SM FEW090
     FM010500 21012KT P6SM SCT070
     FM011000 21010KT P6SM SCT070 BKN100
     FM011500 20007KT P6SM BKN070=



000
FTUS45 KVEF 010200 AAA
TAFLAS
TAF AMD
KLAS 010236Z 0103/0124 20010G18KT P6SM FEW090
     FM010500 21012KT P6SM SCT070
     FM011000 21010KT P6SM SCT070 BKN100
     FM011500 20007KT P6SM BKN070=



000
FTUS45 KVEF 010200 AAA
TAFLAS
TAF AMD
KLAS 010236Z 0103/0124 20010G18KT P6SM FEW090
     FM010500 21012KT P6SM SCT070
     FM011000 21010KT P6SM SCT070 BKN100
     FM011500 20007KT P6SM BKN070=



000
FTUS45 KVEF 282300
TAFBIH
TAF
KBIH 282333Z 0100/0124 20008KT P6SM FEW070 BKN100
     FM010300 33007KT P6SM VCSH SCT060 BKN100=



000
FTUS45 KVEF 282300
TAFDAG
TAF
KDAG 282333Z 0100/0124 23022G30KT P6SM FEW060
     FM010400 24018G25KT P6SM FEW060
     FM011000 27009KT P6SM SCT040 BKN070
     FM011600 30006KT P6SM VCSH BKN040=



000
FTUS45 KVEF 282300
TAFBIH
TAF
KBIH 282333Z 0100/0124 20008KT P6SM FEW070 BKN100
     FM010300 33007KT P6SM VCSH SCT060 BKN100=



000
FTUS45 KVEF 282300
TAFLAS
TAF
KLAS 282333Z 0100/0124 21020G30KT P6SM FEW070
     FM010200 21015G22KT P6SM FEW070
     FM010500 21012KT P6SM SCT070
     FM011000 21010KT P6SM SCT070 BKN100
     FM011500 20007KT P6SM BKN070=



000
FTUS45 KVEF 282300
TAFEED
TAF
KEED 282333Z 0100/0124 24015G24KT P6SM FEW080 BKN200
     FM010300 25012KT P6SM FEW080 SCT200
     FM011000 VRB05KT P6SM SCT060 BKN120
     FM012100 16006KT P6SM VCSH BKN060=



000
FTUS45 KVEF 282300
TAFVGT
TAF
KVGT 282333Z 0100/0124 23018G25KT P6SM FEW070
     FM010300 25010KT P6SM FEW070
     FM011000 30006KT P6SM SCT070 BKN100
     FM011500 33006KT P6SM BKN070=



000
FTUS45 KVEF 282300
TAFLAS
TAF
KLAS 282333Z 0100/0124 21020G30KT P6SM FEW070
     FM010200 21015G22KT P6SM FEW070
     FM010500 21012KT P6SM SCT070
     FM011000 21010KT P6SM SCT070 BKN100
     FM011500 20007KT P6SM BKN070=



000
FTUS45 KVEF 282300
TAFEED
TAF
KEED 282333Z 0100/0124 24015G24KT P6SM FEW080 BKN200
     FM010300 25012KT P6SM FEW080 SCT200
     FM011000 VRB05KT P6SM SCT060 BKN120
     FM012100 16006KT P6SM VCSH BKN060=



000
FTUS45 KVEF 282300
TAFVGT
TAF
KVGT 282333Z 0100/0124 23018G25KT P6SM FEW070
     FM010300 25010KT P6SM FEW070
     FM011000 30006KT P6SM SCT070 BKN100
     FM011500 33006KT P6SM BKN070=



000
FTUS45 KVEF 282300
TAFDAG
TAF
KDAG 282333Z 0100/0124 23022G30KT P6SM FEW060
     FM010400 24018G25KT P6SM FEW060
     FM011000 27009KT P6SM SCT040 BKN070
     FM011600 30006KT P6SM VCSH BKN040=



000
FTUS45 KVEF 282300
TAFLAS
TAF
KLAS 282333Z 0100/0124 21020G30KT P6SM FEW070
     FM010200 21015G22KT P6SM FEW070
     FM010500 21012KT P6SM SCT070
     FM011000 21010KT P6SM SCT070 BKN100
     FM011500 20007KT P6SM BKN070=



000
FTUS45 KVEF 282300
TAFLAS
TAF
KLAS 282333Z 0100/0124 21020G30KT P6SM FEW070
     FM010200 21015G22KT P6SM FEW070
     FM010500 21012KT P6SM SCT070
     FM011000 21010KT P6SM SCT070 BKN100
     FM011500 20007KT P6SM BKN070=



000
FTUS45 KVEF 282000 AAA
TAFLAS
TAF AMD
KLAS 282048Z 2821/0118 21020G30KT P6SM FEW070
     FM010300 22015G22KT P6SM FEW070 BKN150
     FM011000 21010KT P6SM SCT070 BKN100=



000
FTUS45 KVEF 282000 AAA
TAFLAS
TAF AMD
KLAS 282048Z 2821/0118 21020G30KT P6SM FEW070
     FM010300 22015G22KT P6SM FEW070 BKN150
     FM011000 21010KT P6SM SCT070 BKN100=



000
FTUS45 KVEF 281700
TAFLAS
TAF
KLAS 281739Z 2818/0118 21018G26KT P6SM FEW070
     FM282100 21020G30KT P6SM FEW070 SCT150
     FM010300 22015G22KT P6SM FEW070 BKN150
     FM011000 21010KT P6SM SCT070 BKN100=



000
FTUS45 KVEF 281700
TAFVGT
TAF
KVGT 281739Z 2818/0118 22006KT P6SM FEW070
     FM281900 24014G22KT P6SM FEW070
     FM282200 27018G28KT P6SM FEW070 SCT150
     FM010200 25010KT P6SM FEW070 BKN150=



000
FTUS45 KVEF 281700
TAFBIH
TAF
KBIH 281739Z 2818/0118 35008KT P6SM SCT100
     FM282100 35008KT P6SM BKN100
     FM010100 33007KT P6SM VCSH FEW060 BKN100=



000
FTUS45 KVEF 281700
TAFLAS
TAF
KLAS 281739Z 2818/0118 21018G26KT P6SM FEW070
     FM282100 21020G30KT P6SM FEW070 SCT150
     FM010300 22015G22KT P6SM FEW070 BKN150
     FM011000 21010KT P6SM SCT070 BKN100=



000
FTUS45 KVEF 281700
TAFEED
TAF
KEED 281739Z 2818/0118 20007KT P6SM BKN060
     FM282000 22015G24KT P6SM SCT060 SCT150
     FM010300 23010KT P6SM SCT060 SCT150
     FM011000 28006KT P6SM SCT060 BKN150=



000
FTUS45 KVEF 281700
TAFDAG
TAF
KDAG 281739Z 2818/0118 24019KT P6SM FEW040 SCT150
     FM281900 25026G36KT P6SM FEW040 BKN150
     FM010400 24018G28KT P6SM FEW040 BKN150
     FM010800 25009KT P6SM FEW040 BKN100=



    US Dept of Commerce
    National Oceanic and Atmospheric Administration
    National Weather Service
    1325 East West Highway
    Silver Spring, MD 20910
    Page Author: NWS Internet Services Team
Disclaimer
Information Quality
Credits
Glossary
Privacy Policy
Freedom of Information Act (FOIA)
About Us
Career Opportunities